sensor_id;sensor_type;location;lat;lon;timestamp;pressure;altitude;pressure_sealevel;temperature;humidity
64792;BME280;51226;47.504;19.074;2023-03-04T00:02:37;100366.41;;;5.59;57.12
64792;BME280;51226;47.504;19.074;2023-03-04T00:05:40;100363.63;;;5.56;57.21
64792;BME280;51226;47.504;19.074;2023-03-04T00:08:43;100360.62;;;5.48;57.49
64792;BME280;51226;47.504;19.074;2023-03-04T00:11:46;100362.75;;;5.41;57.70
64792;BME280;51226;47.504;19.074;2023-03-04T00:14:48;100358.31;;;5.38;57.89
64792;BME280;51226;47.504;19.074;2023-03-04T00:17:51;100358.13;;;5.35;58.10
64792;BME280;51226;47.504;19.074;2023-03-04T00:20:54;100363.22;;;5.33;58.33
64792;BME280;51226;47.504;19.074;2023-03-04T00:23:57;100364.00;;;5.32;58.31
64792;BME280;51226;47.504;19.074;2023-03-04T00:27:00;100359.56;;;5.30;58.54
64792;BME280;51226;47.504;19.074;2023-03-04T00:30:04;100359.37;;;5.27;58.60
64792;BME280;51226;47.504;19.074;2023-03-04T00:33:07;100356.88;;;5.28;58.70
64792;BME280;51226;47.504;19.074;2023-03-04T00:36:10;100355.91;;;5.26;58.65
64792;BME280;51226;47.504;19.074;2023-03-04T00:39:13;100349.81;;;5.26;58.87
64792;BME280;51226;47.504;19.074;2023-03-04T00:42:16;100352.31;;;5.24;58.77
64792;BME280;51226;47.504;19.074;2023-03-04T00:45:19;100349.37;;;5.18;58.98
64792;BME280;51226;47.504;19.074;2023-03-04T00:48:23;100353.81;;;5.20;59.05
64792;BME280;51226;47.504;19.074;2023-03-04T00:51:25;100352.75;;;5.17;58.96
64792;BME280;51226;47.504;19.074;2023-03-04T00:54:29;100338.75;;;5.13;59.08
64792;BME280;51226;47.504;19.074;2023-03-04T00:57:31;100349.81;;;5.11;59.05
64792;BME280;51226;47.504;19.074;2023-03-04T01:00:35;100348.81;;;5.09;59.12
64792;BME280;51226;47.504;19.074;2023-03-04T01:03:37;100339.28;;;5.08;59.24
64792;BME280;51226;47.504;19.074;2023-03-04T01:06:43;100339.03;;;5.03;59.69
64792;BME280;51226;47.504;19.074;2023-03-04T01:09:46;100335.19;;;4.96;59.88
64792;BME280;51226;47.504;19.074;2023-03-04T01:12:49;100334.28;;;4.96;59.94
64792;BME280;51226;47.504;19.074;2023-03-04T01:15:52;100324.03;;;4.97;59.83
64792;BME280;51226;47.504;19.074;2023-03-04T01:18:56;100320.66;;;4.98;59.94
64792;BME280;51226;47.504;19.074;2023-03-04T01:21:58;100323.25;;;4.98;59.80
64792;BME280;51226;47.504;19.074;2023-03-04T01:25:02;100322.28;;;4.96;59.87
64792;BME280;51226;47.504;19.074;2023-03-04T01:28:06;100324.66;;;4.93;59.93
64792;BME280;51226;47.504;19.074;2023-03-04T01:31:09;100319.94;;;4.86;59.79
64792;BME280;51226;47.504;19.074;2023-03-04T01:34:12;100318.16;;;4.85;60.04
64792;BME280;51226;47.504;19.074;2023-03-04T01:37:15;100310.31;;;4.83;60.16
64792;BME280;51226;47.504;19.074;2023-03-04T01:40:18;100311.28;;;4.86;60.27
64792;BME280;51226;47.504;19.074;2023-03-04T01:43:24;100308.41;;;4.81;60.18
64792;BME280;51226;47.504;19.074;2023-03-04T01:46:29;100307.25;;;4.76;60.25
64792;BME280;51226;47.504;19.074;2023-03-04T01:49:33;100303.88;;;4.77;59.71
64792;BME280;51226;47.504;19.074;2023-03-04T01:52:37;100295.94;;;4.74;59.79
64792;BME280;51226;47.504;19.074;2023-03-04T01:55:41;100296.91;;;4.76;59.45
64792;BME280;51226;47.504;19.074;2023-03-04T01:58:44;100297.09;;;4.79;57.56
64792;BME280;51226;47.504;19.074;2023-03-04T02:01:52;100289.78;;;4.72;56.62
64792;BME280;51226;47.504;19.074;2023-03-04T02:04:56;100290.50;;;4.69;55.71
64792;BME280;51226;47.504;19.074;2023-03-04T02:07:59;100287.66;;;4.64;55.24
64792;BME280;51226;47.504;19.074;2023-03-04T02:11:03;100287.28;;;4.58;54.20
64792;BME280;51226;47.504;19.074;2023-03-04T02:14:08;100289.88;;;4.58;53.87
64792;BME280;51226;47.504;19.074;2023-03-04T02:17:11;100287.72;;;4.51;53.50
64792;BME280;51226;47.504;19.074;2023-03-04T02:20:34;100280.56;;;4.47;53.64
64792;BME280;51226;47.504;19.074;2023-03-04T02:23:48;100279.59;;;4.45;53.22
64792;BME280;51226;47.504;19.074;2023-03-04T02:26:53;100269.06;;;4.42;52.71
64792;BME280;51226;47.504;19.074;2023-03-04T02:29:56;100271.47;;;4.39;52.39
64792;BME280;51226;47.504;19.074;2023-03-04T02:32:59;100262.75;;;4.37;52.75
64792;BME280;51226;47.504;19.074;2023-03-04T02:36:02;100267.72;;;4.34;52.69
64792;BME280;51226;47.504;19.074;2023-03-04T02:42:23;100256.78;;;4.38;52.09
64792;BME280;51226;47.504;19.074;2023-03-04T02:48:43;100255.19;;;4.40;51.37
64792;BME280;51226;47.504;19.074;2023-03-04T02:51:50;100250.22;;;4.43;50.92
64792;BME280;51226;47.504;19.074;2023-03-04T02:54:53;100243.53;;;4.47;50.29
64792;BME280;51226;47.504;19.074;2023-03-04T02:57:57;100235.78;;;4.47;49.78
64792;BME280;51226;47.504;19.074;2023-03-04T03:01:00;100239.34;;;4.49;49.70
64792;BME280;51226;47.504;19.074;2023-03-04T03:04:03;100235.97;;;4.50;49.47
64792;BME280;51226;47.504;19.074;2023-03-04T03:07:06;100237.03;;;4.53;49.62
64792;BME280;51226;47.504;19.074;2023-03-04T03:10:10;100243.81;;;4.51;48.80
64792;BME280;51226;47.504;19.074;2023-03-04T03:13:13;100245.38;;;4.49;48.75
64792;BME280;51226;47.504;19.074;2023-03-04T03:16:16;100235.88;;;4.48;48.55
64792;BME280;51226;47.504;19.074;2023-03-04T03:19:19;100236.47;;;4.44;48.48
64792;BME280;51226;47.504;19.074;2023-03-04T03:22:22;100233.22;;;4.61;47.19
64792;BME280;51226;47.504;19.074;2023-03-04T03:25:25;100230.63;;;4.47;48.00
64792;BME280;51226;47.504;19.074;2023-03-04T03:28:28;100225.09;;;4.40;47.90
64792;BME280;51226;47.504;19.074;2023-03-04T03:31:31;100218.75;;;4.35;48.01
64792;BME280;51226;47.504;19.074;2023-03-04T03:34:34;100215.97;;;4.32;48.08
64792;BME280;51226;47.504;19.074;2023-03-04T03:37:37;100215.78;;;4.29;48.03
64792;BME280;51226;47.504;19.074;2023-03-04T03:40:40;100219.09;;;4.26;48.10
64792;BME280;51226;47.504;19.074;2023-03-04T03:43:43;100212.78;;;4.21;48.30
64792;BME280;51226;47.504;19.074;2023-03-04T03:46:46;100210.69;;;4.16;47.99
64792;BME280;51226;47.504;19.074;2023-03-04T03:49:48;100213.13;;;4.13;48.22
64792;BME280;51226;47.504;19.074;2023-03-04T03:52:52;100205.88;;;4.07;48.37
64792;BME280;51226;47.504;19.074;2023-03-04T03:55:54;100204.91;;;4.05;48.35
64792;BME280;51226;47.504;19.074;2023-03-04T03:58:57;100212.53;;;4.03;48.70
64792;BME280;51226;47.504;19.074;2023-03-04T04:02:01;100201.53;;;4.06;48.60
64792;BME280;51226;47.504;19.074;2023-03-04T04:05:05;100205.09;;;4.08;48.22
64792;BME280;51226;47.504;19.074;2023-03-04T04:08:10;100211.03;;;4.07;48.35
64792;BME280;51226;47.504;19.074;2023-03-04T04:11:14;100209.16;;;4.04;48.33
64792;BME280;51226;47.504;19.074;2023-03-04T04:14:16;100207.84;;;4.11;47.59
64792;BME280;51226;47.504;19.074;2023-03-04T04:17:20;100210.00;;;4.18;46.99
64792;BME280;51226;47.504;19.074;2023-03-04T04:20:24;100200.56;;;4.19;46.74
64792;BME280;51226;47.504;19.074;2023-03-04T04:23:28;100204.91;;;4.05;47.66
64792;BME280;51226;47.504;19.074;2023-03-04T04:26:30;100213.84;;;3.97;48.52
64792;BME280;51226;47.504;19.074;2023-03-04T04:29:33;100209.91;;;3.88;48.85
64792;BME280;51226;47.504;19.074;2023-03-04T04:32:36;100215.69;;;3.84;49.14
64792;BME280;51226;47.504;19.074;2023-03-04T04:35:39;100206.75;;;3.93;48.90
64792;BME280;51226;47.504;19.074;2023-03-04T04:38:42;100207.41;;;3.90;49.49
64792;BME280;51226;47.504;19.074;2023-03-04T04:41:45;100211.81;;;3.91;49.74
64792;BME280;51226;47.504;19.074;2023-03-04T04:44:48;100213.56;;;3.92;49.61
64792;BME280;51226;47.504;19.074;2023-03-04T04:47:52;100204.22;;;3.94;49.65
64792;BME280;51226;47.504;19.074;2023-03-04T04:50:55;100202.34;;;3.92;49.73
64792;BME280;51226;47.504;19.074;2023-03-04T04:53:59;100201.09;;;3.85;49.79
64792;BME280;51226;47.504;19.074;2023-03-04T04:57:03;100198.22;;;3.80;50.05
64792;BME280;51226;47.504;19.074;2023-03-04T05:00:07;100198.22;;;3.80;50.29
64792;BME280;51226;47.504;19.074;2023-03-04T05:03:11;100201.62;;;3.79;50.35
64792;BME280;51226;47.504;19.074;2023-03-04T05:06:14;100203.19;;;3.77;50.74
64792;BME280;51226;47.504;19.074;2023-03-04T05:09:16;100201.62;;;3.79;50.97
64792;BME280;51226;47.504;19.074;2023-03-04T05:12:21;100201.88;;;3.84;51.09
64792;BME280;51226;47.504;19.074;2023-03-04T05:15:24;100203.56;;;3.83;51.16
64792;BME280;51226;47.504;19.074;2023-03-04T05:18:27;100206.44;;;3.88;51.07
64792;BME280;51226;47.504;19.074;2023-03-04T05:21:30;100203.25;;;3.92;51.29
64792;BME280;51226;47.504;19.074;2023-03-04T05:24:33;100203.78;;;3.86;51.79
64792;BME280;51226;47.504;19.074;2023-03-04T05:27:36;100206.34;;;3.86;52.38
64792;BME280;51226;47.504;19.074;2023-03-04T05:30:40;100209.13;;;3.89;52.64
64792;BME280;51226;47.504;19.074;2023-03-04T05:33:43;100215.06;;;3.88;52.72
64792;BME280;51226;47.504;19.074;2023-03-04T05:36:46;100209.47;;;3.96;52.68
64792;BME280;51226;47.504;19.074;2023-03-04T05:39:49;100209.31;;;3.93;52.95
64792;BME280;51226;47.504;19.074;2023-03-04T05:42:52;100213.94;;;3.98;52.97
64792;BME280;51226;47.504;19.074;2023-03-04T05:45:54;100214.34;;;4.04;52.61
64792;BME280;51226;47.504;19.074;2023-03-04T05:48:58;100212.81;;;4.08;52.48
64792;BME280;51226;47.504;19.074;2023-03-04T05:52:00;100228.31;;;4.08;52.68
64792;BME280;51226;47.504;19.074;2023-03-04T05:55:04;100220.91;;;4.14;52.46
64792;BME280;51226;47.504;19.074;2023-03-04T05:58:06;100217.03;;;4.21;53.09
64792;BME280;51226;47.504;19.074;2023-03-04T06:01:10;100231.38;;;4.31;53.55
64792;BME280;51226;47.504;19.074;2023-03-04T06:04:13;100229.88;;;4.34;52.69
64792;BME280;51226;47.504;19.074;2023-03-04T06:07:16;100235.31;;;4.39;52.52
64792;BME280;51226;47.504;19.074;2023-03-04T06:10:19;100234.00;;;4.45;52.34
64792;BME280;51226;47.504;19.074;2023-03-04T06:13:22;100238.56;;;4.50;52.22
64792;BME280;51226;47.504;19.074;2023-03-04T06:16:25;100246.34;;;4.64;51.61
64792;BME280;51226;47.504;19.074;2023-03-04T06:19:28;100248.66;;;4.75;51.37
64792;BME280;51226;47.504;19.074;2023-03-04T06:22:30;100248.56;;;4.73;51.81
64792;BME280;51226;47.504;19.074;2023-03-04T06:25:33;100243.38;;;4.73;51.96
64792;BME280;51226;47.504;19.074;2023-03-04T06:28:36;100244.81;;;4.83;51.38
64792;BME280;51226;47.504;19.074;2023-03-04T06:31:39;100258.00;;;4.88;51.22
64792;BME280;51226;47.504;19.074;2023-03-04T06:34:43;100252.69;;;4.99;50.96
64792;BME280;51226;47.504;19.074;2023-03-04T06:37:46;100248.81;;;5.08;50.44
64792;BME280;51226;47.504;19.074;2023-03-04T06:40:49;100244.94;;;4.99;51.01
64792;BME280;51226;47.504;19.074;2023-03-04T06:43:54;100246.12;;;5.21;50.48
64792;BME280;51226;47.504;19.074;2023-03-04T06:46:57;100247.37;;;5.28;50.14
64792;BME280;51226;47.504;19.074;2023-03-04T06:49:59;100256.44;;;5.36;50.14
64792;BME280;51226;47.504;19.074;2023-03-04T06:53:02;100261.00;;;5.40;50.49
64792;BME280;51226;47.504;19.074;2023-03-04T06:56:06;100254.09;;;5.55;49.89
64792;BME280;51226;47.504;19.074;2023-03-04T06:59:09;100254.69;;;5.66;49.35
64792;BME280;51226;47.504;19.074;2023-03-04T07:02:12;100250.59;;;5.86;48.91
64792;BME280;51226;47.504;19.074;2023-03-04T07:05:15;100245.19;;;5.97;48.70
64792;BME280;51226;47.504;19.074;2023-03-04T07:08:18;100248.16;;;6.04;48.62
64792;BME280;51226;47.504;19.074;2023-03-04T07:11:23;100243.97;;;6.23;48.33
64792;BME280;51226;47.504;19.074;2023-03-04T07:14:26;100249.47;;;6.45;48.08
64792;BME280;51226;47.504;19.074;2023-03-04T07:17:29;100252.25;;;6.66;47.50
64792;BME280;51226;47.504;19.074;2023-03-04T07:20:32;100253.00;;;6.80;47.43
64792;BME280;51226;47.504;19.074;2023-03-04T07:23:35;100245.47;;;7.03;46.67
64792;BME280;51226;47.504;19.074;2023-03-04T07:26:38;100245.56;;;7.22;47.04
64792;BME280;51226;47.504;19.074;2023-03-04T07:29:41;100245.34;;;7.72;45.04
64792;BME280;51226;47.504;19.074;2023-03-04T07:32:44;100247.56;;;7.82;44.47
64792;BME280;51226;47.504;19.074;2023-03-04T07:35:47;100242.09;;;7.95;45.07
64792;BME280;51226;47.504;19.074;2023-03-04T07:38:50;100238.41;;;8.47;42.27
64792;BME280;51226;47.504;19.074;2023-03-04T07:41:53;100242.81;;;8.50;43.49
64792;BME280;51226;47.504;19.074;2023-03-04T07:44:56;100241.31;;;8.75;42.63
64792;BME280;51226;47.504;19.074;2023-03-04T07:48:01;100229.16;;;9.16;42.02
64792;BME280;51226;47.504;19.074;2023-03-04T07:51:09;100235.72;;;9.50;40.41
64792;BME280;51226;47.504;19.074;2023-03-04T07:54:13;100231.69;;;9.80;39.58
64792;BME280;51226;47.504;19.074;2023-03-04T07:57:16;100227.47;;;10.29;38.46
64792;BME280;51226;47.504;19.074;2023-03-04T08:00:19;100223.16;;;10.80;37.58
64792;BME280;51226;47.504;19.074;2023-03-04T08:03:22;100230.44;;;11.41;35.57
64792;BME280;51226;47.504;19.074;2023-03-04T08:06:26;100214.34;;;12.77;32.90
64792;BME280;51226;47.504;19.074;2023-03-04T08:09:29;100205.16;;;14.96;29.70
64792;BME280;51226;47.504;19.074;2023-03-04T08:12:33;100209.66;;;18.60;24.70
64792;BME280;51226;47.504;19.074;2023-03-04T08:15:41;100206.16;;;22.20;20.49
64792;BME280;51226;47.504;19.074;2023-03-04T08:18:45;100192.56;;;24.86;16.88
64792;BME280;51226;47.504;19.074;2023-03-04T08:21:50;100195.81;;;26.32;16.46
64792;BME280;51226;47.504;19.074;2023-03-04T08:24:52;100187.53;;;28.25;15.06
64792;BME280;51226;47.504;19.074;2023-03-04T08:27:55;100185.91;;;29.54;13.07
64792;BME280;51226;47.504;19.074;2023-03-04T08:30:58;100186.25;;;30.46;12.32
64792;BME280;51226;47.504;19.074;2023-03-04T08:34:03;100190.06;;;29.82;12.60
64792;BME280;51226;47.504;19.074;2023-03-04T08:37:05;100190.72;;;29.25;13.82
64792;BME280;51226;47.504;19.074;2023-03-04T08:40:09;100189.81;;;30.46;12.18
64792;BME280;51226;47.504;19.074;2023-03-04T08:43:12;100184.97;;;32.45;11.49
64792;BME280;51226;47.504;19.074;2023-03-04T08:46:15;100183.19;;;34.55;10.06
64792;BME280;51226;47.504;19.074;2023-03-04T08:49:18;100175.87;;;35.90;9.25
64792;BME280;51226;47.504;19.074;2023-03-04T08:52:21;100171.03;;;36.69;8.42
64792;BME280;51226;47.504;19.074;2023-03-04T08:55:23;100172.69;;;37.90;8.32
64792;BME280;51226;47.504;19.074;2023-03-04T08:58:26;100164.09;;;38.51;7.72
64792;BME280;51226;47.504;19.074;2023-03-04T09:01:29;100156.44;;;39.00;7.48
64792;BME280;51226;47.504;19.074;2023-03-04T09:04:32;100157.16;;;39.02;7.47
64792;BME280;51226;47.504;19.074;2023-03-04T09:07:35;100152.34;;;38.94;7.65
64792;BME280;51226;47.504;19.074;2023-03-04T09:10:38;100154.50;;;38.02;7.84
64792;BME280;51226;47.504;19.074;2023-03-04T09:13:41;100166.22;;;36.97;8.49
64792;BME280;51226;47.504;19.074;2023-03-04T09:16:44;100150.88;;;34.52;9.68
64792;BME280;51226;47.504;19.074;2023-03-04T09:19:47;100148.94;;;31.46;11.04
64792;BME280;51226;47.504;19.074;2023-03-04T09:22:50;100149.00;;;28.74;13.98
64792;BME280;51226;47.504;19.074;2023-03-04T09:25:52;100145.78;;;26.92;14.48
64792;BME280;51226;47.504;19.074;2023-03-04T09:28:58;100154.94;;;25.66;15.88
64792;BME280;51226;47.504;19.074;2023-03-04T09:32:01;100147.78;;;24.63;16.97
64792;BME280;51226;47.504;19.074;2023-03-04T09:35:06;100151.78;;;24.01;17.17
64792;BME280;51226;47.504;19.074;2023-03-04T09:38:09;100149.50;;;23.36;17.77
64792;BME280;51226;47.504;19.074;2023-03-04T09:41:19;100150.06;;;23.02;18.68
64792;BME280;51226;47.504;19.074;2023-03-04T09:44:35;100144.88;;;22.93;18.82
64792;BME280;51226;47.504;19.074;2023-03-04T09:47:39;100144.09;;;22.86;19.68
64792;BME280;51226;47.504;19.074;2023-03-04T09:50:50;100138.91;;;22.79;18.72
64792;BME280;51226;47.504;19.074;2023-03-04T09:54:06;100138.38;;;22.56;18.59
64792;BME280;51226;47.504;19.074;2023-03-04T10:00:46;100138.16;;;22.05;19.65
64792;BME280;51226;47.504;19.074;2023-03-04T10:04:28;100142.91;;;21.80;19.76
64792;BME280;51226;47.504;19.074;2023-03-04T10:07:35;100126.91;;;21.88;19.40
64792;BME280;51226;47.504;19.074;2023-03-04T10:10:41;100127.78;;;21.87;19.77
64792;BME280;51226;47.504;19.074;2023-03-04T10:21:00;100117.28;;;21.79;20.52
64792;BME280;51226;47.504;19.074;2023-03-04T10:24:12;100124.06;;;22.01;20.20
64792;BME280;51226;47.504;19.074;2023-03-04T10:27:17;100122.47;;;21.88;20.09
64792;BME280;51226;47.504;19.074;2023-03-04T10:30:35;100113.78;;;21.75;20.92
64792;BME280;51226;47.504;19.074;2023-03-04T10:33:40;100127.09;;;21.74;20.44
64792;BME280;51226;47.504;19.074;2023-03-04T10:39:53;100101.59;;;21.59;20.44
64792;BME280;51226;47.504;19.074;2023-03-04T10:42:58;100105.13;;;21.59;20.39
64792;BME280;51226;47.504;19.074;2023-03-04T10:46:01;100099.88;;;21.53;20.45
64792;BME280;51226;47.504;19.074;2023-03-04T10:49:05;100094.56;;;21.55;20.54
64792;BME280;51226;47.504;19.074;2023-03-04T10:55:29;100072.53;;;21.48;20.64
64792;BME280;51226;47.504;19.074;2023-03-04T10:58:43;100079.59;;;21.46;21.26
64792;BME280;51226;47.504;19.074;2023-03-04T11:01:46;100072.31;;;21.65;19.85
64792;BME280;51226;47.504;19.074;2023-03-04T11:04:49;100058.94;;;21.73;19.66
64792;BME280;51226;47.504;19.074;2023-03-04T11:07:57;100048.38;;;21.70;19.70
64792;BME280;51226;47.504;19.074;2023-03-04T11:11:00;100048.31;;;21.74;19.61
64792;BME280;51226;47.504;19.074;2023-03-04T11:14:15;100046.50;;;21.78;19.45
64792;BME280;51226;47.504;19.074;2023-03-04T11:17:25;100045.56;;;21.82;19.32
64792;BME280;51226;47.504;19.074;2023-03-04T11:20:48;100044.88;;;21.68;19.90
64792;BME280;51226;47.504;19.074;2023-03-04T11:23:57;100050.16;;;21.69;19.29
64792;BME280;51226;47.504;19.074;2023-03-04T11:27:09;100049.97;;;21.83;19.06
64792;BME280;51226;47.504;19.074;2023-03-04T11:30:18;100040.28;;;21.79;19.34
64792;BME280;51226;47.504;19.074;2023-03-04T11:56:25;100015.94;;;21.48;19.65
64792;BME280;51226;47.504;19.074;2023-03-04T11:59:42;100010.63;;;21.44;19.72
64792;BME280;51226;47.504;19.074;2023-03-04T12:06:34;99999.13;;;21.45;19.83
64792;BME280;51226;47.504;19.074;2023-03-04T12:13:20;99996.47;;;21.44;20.24
64792;BME280;51226;47.504;19.074;2023-03-04T12:20:08;99984.94;;;21.46;20.28
64792;BME280;51226;47.504;19.074;2023-03-04T12:30:05;99969.72;;;21.62;19.99
64792;BME280;51226;47.504;19.074;2023-03-04T12:54:24;99940.25;;;20.32;21.25
64792;BME280;51226;47.504;19.074;2023-03-04T12:57:31;99927.09;;;20.20;21.42
64792;BME280;51226;47.504;19.074;2023-03-04T13:04:11;99923.00;;;19.80;21.96
64792;BME280;51226;47.504;19.074;2023-03-04T13:07:24;99930.09;;;19.72;22.20
64792;BME280;51226;47.504;19.074;2023-03-04T13:10:35;99930.13;;;19.75;22.22
64792;BME280;51226;47.504;19.074;2023-03-04T13:13:39;99922.16;;;19.76;22.27
64792;BME280;51226;47.504;19.074;2023-03-04T13:16:52;99906.34;;;19.59;22.30
64792;BME280;51226;47.504;19.074;2023-03-04T13:20:10;99902.94;;;19.40;22.74
64792;BME280;51226;47.504;19.074;2023-03-04T13:23:20;99888.03;;;19.32;23.03
64792;BME280;51226;47.504;19.074;2023-03-04T13:26:32;99895.00;;;19.42;23.02
64792;BME280;51226;47.504;19.074;2023-03-04T13:29:35;99890.59;;;19.42;24.00
64792;BME280;51226;47.504;19.074;2023-03-04T13:32:38;99876.50;;;19.37;24.49
64792;BME280;51226;47.504;19.074;2023-03-04T13:39:00;99864.25;;;19.27;22.50
64792;BME280;51226;47.504;19.074;2023-03-04T13:42:37;99866.03;;;19.22;21.92
64792;BME280;51226;47.504;19.074;2023-03-04T13:45:40;99861.63;;;19.21;22.18
64792;BME280;51226;47.504;19.074;2023-03-04T13:51:53;99858.19;;;19.10;21.67
64792;BME280;51226;47.504;19.074;2023-03-04T13:55:31;99847.66;;;18.99;21.68
64792;BME280;51226;47.504;19.074;2023-03-04T13:58:35;99845.09;;;18.86;21.13
64792;BME280;51226;47.504;19.074;2023-03-04T14:04:55;99838.12;;;18.56;20.88
64792;BME280;51226;47.504;19.074;2023-03-04T14:08:15;99832.91;;;18.27;21.01
64792;BME280;51226;47.504;19.074;2023-03-04T14:11:25;99824.19;;;17.91;21.76
64792;BME280;51226;47.504;19.074;2023-03-04T14:14:39;99841.75;;;17.64;22.43
64792;BME280;51226;47.504;19.074;2023-03-04T14:17:47;99834.69;;;17.40;22.78
64792;BME280;51226;47.504;19.074;2023-03-04T14:20:51;99829.38;;;17.11;22.10
64792;BME280;51226;47.504;19.074;2023-03-04T14:24:12;99824.97;;;17.03;22.16
64792;BME280;51226;47.504;19.074;2023-03-04T14:27:15;99830.19;;;16.90;21.63
64792;BME280;51226;47.504;19.074;2023-03-04T14:30:27;99834.41;;;16.51;23.28
64792;BME280;51226;47.504;19.074;2023-03-04T14:33:46;99829.84;;;16.17;23.77
64792;BME280;51226;47.504;19.074;2023-03-04T14:36:50;99838.38;;;15.87;23.34
64792;BME280;51226;47.504;19.074;2023-03-04T14:39:55;99844.31;;;15.64;23.94
64792;BME280;51226;47.504;19.074;2023-03-04T14:43:05;99851.00;;;15.31;25.60
64792;BME280;51226;47.504;19.074;2023-03-04T14:46:12;99840.28;;;15.10;24.38
64792;BME280;51226;47.504;19.074;2023-03-04T14:49:17;99852.19;;;14.80;24.66
64792;BME280;51226;47.504;19.074;2023-03-04T14:56:14;99842.84;;;14.36;26.91
64792;BME280;51226;47.504;19.074;2023-03-04T14:59:16;99844.34;;;14.17;26.01
64792;BME280;51226;47.504;19.074;2023-03-04T15:02:27;99849.09;;;13.86;26.90
64792;BME280;51226;47.504;19.074;2023-03-04T15:05:36;99840.91;;;13.66;27.30
64792;BME280;51226;47.504;19.074;2023-03-04T15:08:40;99845.03;;;13.50;28.50
64792;BME280;51226;47.504;19.074;2023-03-04T15:11:47;99848.81;;;13.21;29.26
64792;BME280;51226;47.504;19.074;2023-03-04T15:14:52;99846.22;;;13.22;28.45
64792;BME280;51226;47.504;19.074;2023-03-04T15:17:59;99851.16;;;13.05;29.01
64792;BME280;51226;47.504;19.074;2023-03-04T15:21:32;99855.91;;;12.81;29.45
64792;BME280;51226;47.504;19.074;2023-03-04T15:24:36;99849.59;;;12.71;29.47
64792;BME280;51226;47.504;19.074;2023-03-04T15:27:39;99843.97;;;12.52;29.98
64792;BME280;51226;47.504;19.074;2023-03-04T15:30:41;99849.66;;;12.33;30.43
64792;BME280;51226;47.504;19.074;2023-03-04T15:33:44;99862.97;;;12.05;30.63
64792;BME280;51226;47.504;19.074;2023-03-04T15:36:49;99856.69;;;11.97;31.04
64792;BME280;51226;47.504;19.074;2023-03-04T15:39:54;99858.13;;;11.86;31.47
64792;BME280;51226;47.504;19.074;2023-03-04T15:43:00;99859.66;;;11.76;31.58
64792;BME280;51226;47.504;19.074;2023-03-04T15:46:03;99860.69;;;11.48;32.27
64792;BME280;51226;47.504;19.074;2023-03-04T15:49:06;99867.25;;;11.34;33.14
64792;BME280;51226;47.504;19.074;2023-03-04T15:52:18;99855.91;;;11.31;33.00
64792;BME280;51226;47.504;19.074;2023-03-04T15:55:21;99854.50;;;11.12;33.36
64792;BME280;51226;47.504;19.074;2023-03-04T15:58:25;99874.91;;;10.96;34.00
64792;BME280;51226;47.504;19.074;2023-03-04T16:01:29;99870.47;;;10.91;33.58
64792;BME280;51226;47.504;19.074;2023-03-04T16:04:32;99861.59;;;10.85;33.77
64792;BME280;51226;47.504;19.074;2023-03-04T16:07:36;99853.63;;;10.80;33.59
64792;BME280;51226;47.504;19.074;2023-03-04T16:10:42;99851.31;;;10.61;33.72
64792;BME280;51226;47.504;19.074;2023-03-04T16:13:46;99848.09;;;10.39;34.48
64792;BME280;51226;47.504;19.074;2023-03-04T16:16:49;99845.44;;;10.37;34.23
64792;BME280;51226;47.504;19.074;2023-03-04T16:19:54;99846.69;;;10.50;33.81
64792;BME280;51226;47.504;19.074;2023-03-04T16:22:58;99854.63;;;10.26;34.54
64792;BME280;51226;47.504;19.074;2023-03-04T16:26:02;99867.50;;;10.22;34.16
64792;BME280;51226;47.504;19.074;2023-03-04T16:29:25;99847.19;;;10.38;33.00
64792;BME280;51226;47.504;19.074;2023-03-04T16:32:28;99859.81;;;9.97;34.76
64792;BME280;51226;47.504;19.074;2023-03-04T16:35:36;99855.59;;;10.01;34.00
64792;BME280;51226;47.504;19.074;2023-03-04T16:38:40;99849.66;;;9.78;34.35
64792;BME280;51226;47.504;19.074;2023-03-04T16:41:44;99857.13;;;9.69;34.65
64792;BME280;51226;47.504;19.074;2023-03-04T16:44:48;99853.72;;;9.70;34.17
64792;BME280;51226;47.504;19.074;2023-03-04T16:47:51;99859.72;;;9.41;35.70
64792;BME280;51226;47.504;19.074;2023-03-04T16:50:54;99860.34;;;9.34;35.30
64792;BME280;51226;47.504;19.074;2023-03-04T16:53:59;99856.13;;;9.38;35.50
64792;BME280;51226;47.504;19.074;2023-03-04T16:57:01;99849.00;;;9.32;35.53
64792;BME280;51226;47.504;19.074;2023-03-04T17:00:05;99861.28;;;9.11;36.66
64792;BME280;51226;47.504;19.074;2023-03-04T17:03:10;99857.28;;;8.96;36.97
64792;BME280;51226;47.504;19.074;2023-03-04T17:06:14;99858.03;;;8.94;36.69
64792;BME280;51226;47.504;19.074;2023-03-04T17:09:17;99866.88;;;8.97;36.86
64792;BME280;51226;47.504;19.074;2023-03-04T17:12:20;99867.25;;;8.84;37.30
64792;BME280;51226;47.504;19.074;2023-03-04T17:15:23;99875.62;;;8.77;37.43
64792;BME280;51226;47.504;19.074;2023-03-04T17:18:25;99871.09;;;8.71;37.83
64792;BME280;51226;47.504;19.074;2023-03-04T17:21:28;99878.22;;;8.77;37.06
64792;BME280;51226;47.504;19.074;2023-03-04T17:24:31;99874.75;;;8.76;37.05
64792;BME280;51226;47.504;19.074;2023-03-04T17:27:35;99875.38;;;8.69;36.81
64792;BME280;51226;47.504;19.074;2023-03-04T17:30:38;99872.66;;;8.66;37.05
64792;BME280;51226;47.504;19.074;2023-03-04T17:33:41;99880.56;;;8.69;36.91
64792;BME280;51226;47.504;19.074;2023-03-04T17:36:45;99875.19;;;8.64;37.12
64792;BME280;51226;47.504;19.074;2023-03-04T17:39:48;99890.38;;;8.53;37.44
64792;BME280;51226;47.504;19.074;2023-03-04T17:42:51;99895.53;;;8.52;37.54
64792;BME280;51226;47.504;19.074;2023-03-04T17:46:04;99897.53;;;8.59;37.15
64792;BME280;51226;47.504;19.074;2023-03-04T17:49:09;99888.50;;;8.49;37.33
64792;BME280;51226;47.504;19.074;2023-03-04T17:52:12;99892.81;;;8.49;37.59